sensor_id;sensor_type;location;lat;lon;timestamp;pressure;altitude;pressure_sealevel;temperature;humidity
12358;BME280;6243;51.244;6.774;2023-02-22T00:01:47;150158.59;;;10.70;100.00
12358;BME280;6243;51.244;6.774;2023-02-22T00:04:13;150147.13;;;10.65;100.00
12358;BME280;6243;51.244;6.774;2023-02-22T00:06:38;150078.50;;;10.38;100.00
12358;BME280;6243;51.244;6.774;2023-02-22T00:09:04;150065.81;;;10.33;100.00
12358;BME280;6243;51.244;6.774;2023-02-22T00:11:31;150163.69;;;10.72;100.00
12358;BME280;6243;51.244;6.774;2023-02-22T00:13:57;150161.13;;;10.71;100.00
12358;BME280;6243;51.244;6.774;2023-02-22T00:16:24;150123.00;;;10.56;100.00
12358;BME280;6243;51.244;6.774;2023-02-22T00:18:50;150164.91;;;10.73;100.00
12358;BME280;6243;51.244;6.774;2023-02-22T00:21:16;150213.25;;;10.92;100.00
12358;BME280;6243;51.244;6.774;2023-02-22T00:23:44;150189.06;;;10.82;100.00
12358;BME280;6243;51.244;6.774;2023-02-22T00:26:10;150023.88;;;10.17;100.00
12358;BME280;6243;51.244;6.774;2023-02-22T00:28:37;150111.56;;;10.51;100.00
12358;BME280;6243;51.244;6.774;2023-02-22T00:31:04;150154.75;;;10.68;100.00
12358;BME280;6243;51.244;6.774;2023-02-22T00:33:30;150201.78;;;10.87;100.00
12358;BME280;6243;51.244;6.774;2023-02-22T00:35:55;150213.25;;;10.92;100.00
12358;BME280;6243;51.244;6.774;2023-02-22T00:38:21;150219.59;;;10.94;100.00
12358;BME280;6243;51.244;6.774;2023-02-22T00:40:46;150200.50;;;10.87;100.00
12358;BME280;6243;51.244;6.774;2023-02-22T00:43:12;150185.28;;;10.81;100.00
12358;BME280;6243;51.244;6.774;2023-02-22T00:45:39;150170.03;;;10.75;100.00
12358;BME280;6243;51.244;6.774;2023-02-22T00:48:06;150190.34;;;10.83;100.00
12358;BME280;6243;51.244;6.774;2023-02-22T00:50:32;150126.81;;;10.57;100.00
12358;BME280;6243;51.244;6.774;2023-02-22T00:52:59;150045.47;;;10.25;100.00
12358;BME280;6243;51.244;6.774;2023-02-22T00:55:27;150106.50;;;10.49;100.00
12358;BME280;6243;51.244;6.774;2023-02-22T00:57:53;150115.38;;;10.53;100.00
12358;BME280;6243;51.244;6.774;2023-02-22T01:00:21;149783.81;;;9.21;100.00
12358;BME280;6243;51.244;6.774;2023-02-22T01:02:48;149914.59;;;9.73;100.00
12358;BME280;6243;51.244;6.774;2023-02-22T01:05:14;150040.38;;;10.23;100.00
12358;BME280;6243;51.244;6.774;2023-02-22T01:07:39;150084.84;;;10.41;100.00
12358;BME280;6243;51.244;6.774;2023-02-22T01:10:06;149984.44;;;10.01;100.00
12358;BME280;6243;51.244;6.774;2023-02-22T01:12:32;149809.16;;;9.32;100.00
12358;BME280;6243;51.244;6.774;2023-02-22T01:14:57;149934.88;;;9.81;100.00
12358;BME280;6243;51.244;6.774;2023-02-22T01:17:23;149903.16;;;9.69;100.00
12358;BME280;6243;51.244;6.774;2023-02-22T01:19:50;150022.59;;;10.16;100.00
12358;BME280;6243;51.244;6.774;2023-02-22T01:22:15;150058.19;;;10.30;100.00
12358;BME280;6243;51.244;6.774;2023-02-22T01:24:41;150045.47;;;10.25;100.00
12358;BME280;6243;51.244;6.774;2023-02-22T01:27:07;150053.09;;;10.28;100.00
12358;BME280;6243;51.244;6.774;2023-02-22T01:29:32;150048.03;;;10.26;100.00
12358;BME280;6243;51.244;6.774;2023-02-22T01:31:58;150069.63;;;10.35;100.00
12358;BME280;6243;51.244;6.774;2023-02-22T01:34:24;149933.66;;;9.81;100.00
12358;BME280;6243;51.244;6.774;2023-02-22T01:36:51;149983.16;;;10.00;100.00
12358;BME280;6243;51.244;6.774;2023-02-22T01:39:16;150044.19;;;10.25;100.00
12358;BME280;6243;51.244;6.774;2023-02-22T01:41:42;150031.50;;;10.20;100.00
12358;BME280;6243;51.244;6.774;2023-02-22T01:44:18;150004.75;;;10.09;100.00
12358;BME280;6243;51.244;6.774;2023-02-22T01:46:44;150018.78;;;10.15;100.00
12358;BME280;6243;51.244;6.774;2023-02-22T01:49:10;150012.44;;;10.12;100.00
12358;BME280;6243;51.244;6.774;2023-02-22T01:51:40;150028.94;;;10.19;100.00
12358;BME280;6243;51.244;6.774;2023-02-22T01:54:10;150002.25;;;10.08;100.00
12358;BME280;6243;51.244;6.774;2023-02-22T01:56:39;149943.78;;;9.85;100.00
12358;BME280;6243;51.244;6.774;2023-02-22T01:59:07;149943.78;;;9.85;100.00
12358;BME280;6243;51.244;6.774;2023-02-22T02:01:34;150000.97;;;10.08;100.00
12358;BME280;6243;51.244;6.774;2023-02-22T02:04:04;149981.88;;;10.00;100.00
12358;BME280;6243;51.244;6.774;2023-02-22T02:06:32;149993.31;;;10.05;100.00
12358;BME280;6243;51.244;6.774;2023-02-22T02:09:04;149962.81;;;9.92;100.00
12358;BME280;6243;51.244;6.774;2023-02-22T02:11:33;149986.97;;;10.02;100.00
12358;BME280;6243;51.244;6.774;2023-02-22T02:13:59;149973.00;;;9.96;100.00
12358;BME280;6243;51.244;6.774;2023-02-22T02:16:36;149951.38;;;9.88;100.00
12358;BME280;6243;51.244;6.774;2023-02-22T02:19:03;149973.00;;;9.96;100.00
12358;BME280;6243;51.244;6.774;2023-02-22T02:21:39;149964.09;;;9.93;100.00
12358;BME280;6243;51.244;6.774;2023-02-22T02:27:17;149975.53;;;9.97;100.00
12358;BME280;6243;51.244;6.774;2023-02-22T02:32:55;149920.94;;;9.76;100.00
12358;BME280;6243;51.244;6.774;2023-02-22T02:35:28;149922.22;;;9.76;100.00
12358;BME280;6243;51.244;6.774;2023-02-22T02:38:03;149910.78;;;9.72;100.00
12358;BME280;6243;51.244;6.774;2023-02-22T02:40:32;149952.66;;;9.88;100.00
12358;BME280;6243;51.244;6.774;2023-02-22T02:43:06;149913.31;;;9.73;100.00
12358;BME280;6243;51.244;6.774;2023-02-22T02:45:39;149933.66;;;9.81;100.00
12358;BME280;6243;51.244;6.774;2023-02-22T02:48:10;149961.59;;;9.92;100.00
12358;BME280;6243;51.244;6.774;2023-02-22T02:50:41;149993.31;;;10.05;100.00
12358;BME280;6243;51.244;6.774;2023-02-22T02:53:09;149992.03;;;10.04;100.00
12358;BME280;6243;51.244;6.774;2023-02-22T02:55:36;149967.94;;;9.94;100.00
12358;BME280;6243;51.244;6.774;2023-02-22T02:58:02;149965.38;;;9.93;100.00
12358;BME280;6243;51.244;6.774;2023-02-22T03:00:30;149984.44;;;10.01;100.00
12358;BME280;6243;51.244;6.774;2023-02-22T03:03:09;149719.06;;;8.96;100.00
12358;BME280;6243;51.244;6.774;2023-02-22T03:08:30;149748.25;;;9.07;100.00
12358;BME280;6243;51.244;6.774;2023-02-22T03:11:02;149851.09;;;9.48;100.00
12358;BME280;6243;51.244;6.774;2023-02-22T03:13:37;149881.56;;;9.60;100.00
12358;BME280;6243;51.244;6.774;2023-02-22T03:16:14;149692.41;;;8.85;100.00
12358;BME280;6243;51.244;6.774;2023-02-22T03:18:49;149847.28;;;9.47;100.00
12358;BME280;6243;51.244;6.774;2023-02-22T03:21:23;149901.88;;;9.68;100.00
12358;BME280;6243;51.244;6.774;2023-02-22T03:23:58;149918.38;;;9.75;100.00
12358;BME280;6243;51.244;6.774;2023-02-22T03:26:28;149754.59;;;9.10;100.00
12358;BME280;6243;51.244;6.774;2023-02-22T03:28:57;149766.03;;;9.14;100.00
12358;BME280;6243;51.244;6.774;2023-02-22T03:31:27;149665.75;;;8.75;100.00
12358;BME280;6243;51.244;6.774;2023-02-22T03:33:59;149579.47;;;8.40;100.00
12358;BME280;6243;51.244;6.774;2023-02-22T03:36:29;149557.91;;;8.32;100.00
12358;BME280;6243;51.244;6.774;2023-02-22T03:38:59;149514.69;;;8.15;100.00
12358;BME280;6243;51.244;6.774;2023-02-22T03:41:27;149542.69;;;8.26;100.00
12358;BME280;6243;51.244;6.774;2023-02-22T03:43:58;149537.53;;;8.24;100.00
12358;BME280;6243;51.244;6.774;2023-02-22T03:46:26;149549.00;;;8.28;100.00
12358;BME280;6243;51.244;6.774;2023-02-22T03:48:56;149621.34;;;8.57;100.00
12358;BME280;6243;51.244;6.774;2023-02-22T03:51:26;149532.47;;;8.22;100.00
12358;BME280;6243;51.244;6.774;2023-02-22T03:53:51;149651.81;;;8.69;100.00
12358;BME280;6243;51.244;6.774;2023-02-22T03:56:20;149622.63;;;8.57;100.00
12358;BME280;6243;51.244;6.774;2023-02-22T03:58:48;149537.53;;;8.24;100.00
12358;BME280;6243;51.244;6.774;2023-02-22T04:01:14;149613.72;;;8.54;100.00
12358;BME280;6243;51.244;6.774;2023-02-22T04:03:40;149517.25;;;8.16;100.00
12358;BME280;6243;51.244;6.774;2023-02-22T04:06:07;149546.50;;;8.27;100.00
12358;BME280;6243;51.244;6.774;2023-02-22T04:08:34;149494.44;;;8.07;100.00
12358;BME280;6243;51.244;6.774;2023-02-22T04:11:00;149611.19;;;8.53;100.00
12358;BME280;6243;51.244;6.774;2023-02-22T04:13:26;149700.00;;;8.88;100.00
12358;BME280;6243;51.244;6.774;2023-02-22T04:15:51;149557.91;;;8.32;100.00
12358;BME280;6243;51.244;6.774;2023-02-22T04:18:17;149573.13;;;8.38;100.00
12358;BME280;6243;51.244;6.774;2023-02-22T04:20:42;149470.34;;;7.97;100.00
12358;BME280;6243;51.244;6.774;2023-02-22T04:23:08;149494.44;;;8.07;100.00
12358;BME280;6243;51.244;6.774;2023-02-22T04:25:35;149481.75;;;8.02;100.00
12358;BME280;6243;51.244;6.774;2023-02-22T04:28:00;149413.28;;;7.74;100.00
12358;BME280;6243;51.244;6.774;2023-02-22T04:30:26;149488.09;;;8.04;100.00
12358;BME280;6243;51.244;6.774;2023-02-22T04:32:51;149513.47;;;8.14;100.00
12358;BME280;6243;51.244;6.774;2023-02-22T04:35:17;149561.69;;;8.33;100.00
12358;BME280;6243;51.244;6.774;2023-02-22T04:37:43;149559.19;;;8.32;100.00
12358;BME280;6243;51.244;6.774;2023-02-22T04:40:09;149529.94;;;8.21;100.00
12358;BME280;6243;51.244;6.774;2023-02-22T04:42:36;149496.94;;;8.08;100.00
12358;BME280;6243;51.244;6.774;2023-02-22T04:45:03;149451.28;;;7.89;100.00
12358;BME280;6243;51.244;6.774;2023-02-22T04:47:29;149521.06;;;8.17;100.00
12358;BME280;6243;51.244;6.774;2023-02-22T04:49:54;149475.41;;;7.99;100.00
12358;BME280;6243;51.244;6.774;2023-02-22T04:52:20;149524.88;;;8.19;100.00
12358;BME280;6243;51.244;6.774;2023-02-22T04:54:45;149541.38;;;8.25;100.00
12358;BME280;6243;51.244;6.774;2023-02-22T04:57:11;149606.13;;;8.51;100.00
12358;BME280;6243;51.244;6.774;2023-02-22T04:59:38;149518.53;;;8.16;100.00
12358;BME280;6243;51.244;6.774;2023-02-22T05:02:03;149628.97;;;8.60;100.00
12358;BME280;6243;51.244;6.774;2023-02-22T05:04:29;149540.09;;;8.25;100.00
12358;BME280;6243;51.244;6.774;2023-02-22T05:06:54;149519.81;;;8.17;100.00
12358;BME280;6243;51.244;6.774;2023-02-22T05:09:20;149484.28;;;8.03;100.00
12358;BME280;6243;51.244;6.774;2023-02-22T05:11:46;149557.91;;;8.32;100.00
12358;BME280;6243;51.244;6.774;2023-02-22T05:14:11;149509.63;;;8.13;100.00
12358;BME280;6243;51.244;6.774;2023-02-22T05:16:38;149467.81;;;7.96;100.00
12358;BME280;6243;51.244;6.774;2023-02-22T05:19:03;149491.88;;;8.06;100.00
12358;BME280;6243;51.244;6.774;2023-02-22T05:21:29;149557.91;;;8.32;100.00
12358;BME280;6243;51.244;6.774;2023-02-22T05:23:55;149491.88;;;8.06;100.00
12358;BME280;6243;51.244;6.774;2023-02-22T05:26:20;149518.53;;;8.16;100.00
12358;BME280;6243;51.244;6.774;2023-02-22T05:28:46;149602.28;;;8.49;100.00
12358;BME280;6243;51.244;6.774;2023-02-22T05:31:11;149542.69;;;8.26;100.00
12358;BME280;6243;51.244;6.774;2023-02-22T05:33:38;149531.22;;;8.21;100.00
12358;BME280;6243;51.244;6.774;2023-02-22T05:36:04;149623.84;;;8.58;100.00
12358;BME280;6243;51.244;6.774;2023-02-22T05:38:30;149556.63;;;8.31;100.00
12358;BME280;6243;51.244;6.774;2023-02-22T05:40:55;149569.31;;;8.36;100.00
12358;BME280;6243;51.244;6.774;2023-02-22T05:43:21;149504.56;;;8.11;100.00
12358;BME280;6243;51.244;6.774;2023-02-22T05:45:47;149517.25;;;8.16;100.00
12358;BME280;6243;51.244;6.774;2023-02-22T05:48:12;149601.00;;;8.49;100.00
12358;BME280;6243;51.244;6.774;2023-02-22T05:50:39;149576.94;;;8.39;100.00
12358;BME280;6243;51.244;6.774;2023-02-22T05:53:05;149628.97;;;8.60;100.00
12358;BME280;6243;51.244;6.774;2023-02-22T05:55:30;149640.38;;;8.65;100.00
12358;BME280;6243;51.244;6.774;2023-02-22T05:57:56;149664.47;;;8.74;100.00
12358;BME280;6243;51.244;6.774;2023-02-22T06:00:23;149522.31;;;8.18;100.00
12358;BME280;6243;51.244;6.774;2023-02-22T06:02:53;149543.94;;;8.26;100.00
12358;BME280;6243;51.244;6.774;2023-02-22T06:05:19;149590.88;;;8.45;100.00
12358;BME280;6243;51.244;6.774;2023-02-22T06:07:46;149500.78;;;8.09;100.00
12358;BME280;6243;51.244;6.774;2023-02-22T06:10:11;149566.75;;;8.35;100.00
12358;BME280;6243;51.244;6.774;2023-02-22T06:12:37;149576.94;;;8.39;100.00
12358;BME280;6243;51.244;6.774;2023-02-22T06:15:03;149555.34;;;8.31;100.00
12358;BME280;6243;51.244;6.774;2023-02-22T06:17:28;149427.25;;;7.80;100.00
12358;BME280;6243;51.244;6.774;2023-02-22T06:19:54;149485.53;;;8.03;100.00
12358;BME280;6243;51.244;6.774;2023-02-22T06:22:19;149461.47;;;7.94;100.00
12358;BME280;6243;51.244;6.774;2023-02-22T06:24:46;149503.28;;;8.10;100.00
12358;BME280;6243;51.244;6.774;2023-02-22T06:27:12;149603.56;;;8.50;100.00
12358;BME280;6243;51.244;6.774;2023-02-22T06:29:37;149595.94;;;8.47;100.00
12358;BME280;6243;51.244;6.774;2023-02-22T06:32:03;149613.72;;;8.54;100.00
12358;BME280;6243;51.244;6.774;2023-02-22T06:34:29;149696.22;;;8.87;100.00
12358;BME280;6243;51.244;6.774;2023-02-22T06:36:54;149651.81;;;8.69;100.00
12358;BME280;6243;51.244;6.774;2023-02-22T06:39:20;149702.56;;;8.89;100.00
12358;BME280;6243;51.244;6.774;2023-02-22T06:41:47;149668.31;;;8.76;100.00
12358;BME280;6243;51.244;6.774;2023-02-22T06:44:13;149698.72;;;8.88;100.00
12358;BME280;6243;51.244;6.774;2023-02-22T06:46:39;149688.56;;;8.84;100.00
12358;BME280;6243;51.244;6.774;2023-02-22T06:49:05;149717.78;;;8.95;100.00
12358;BME280;6243;51.244;6.774;2023-02-22T06:51:34;149715.25;;;8.94;100.00
12358;BME280;6243;51.244;6.774;2023-02-22T06:54:01;149660.66;;;8.73;100.00
12358;BME280;6243;51.244;6.774;2023-02-22T06:56:26;149687.31;;;8.83;100.00
12358;BME280;6243;51.244;6.774;2023-02-22T06:58:53;149689.84;;;8.84;100.00
12358;BME280;6243;51.244;6.774;2023-02-22T07:01:18;149700.00;;;8.88;100.00
12358;BME280;6243;51.244;6.774;2023-02-22T07:03:44;149733.00;;;9.01;100.00
12358;BME280;6243;51.244;6.774;2023-02-22T07:06:09;149733.00;;;9.01;100.00
12358;BME280;6243;51.244;6.774;2023-02-22T07:08:35;149642.91;;;8.66;100.00
12358;BME280;6243;51.244;6.774;2023-02-22T07:11:02;149703.84;;;8.90;100.00
12358;BME280;6243;51.244;6.774;2023-02-22T07:13:28;149760.97;;;9.12;100.00
12358;BME280;6243;51.244;6.774;2023-02-22T07:15:54;149779.97;;;9.20;100.00
12358;BME280;6243;51.244;6.774;2023-02-22T07:18:20;149731.75;;;9.01;100.00
12358;BME280;6243;51.244;6.774;2023-02-22T07:20:46;149748.25;;;9.07;100.00
12358;BME280;6243;51.244;6.774;2023-02-22T07:23:13;149791.38;;;9.24;100.00
12358;BME280;6243;51.244;6.774;2023-02-22T07:25:38;149830.75;;;9.40;100.00
12358;BME280;6243;51.244;6.774;2023-02-22T07:28:04;149755.84;;;9.10;100.00
12358;BME280;6243;51.244;6.774;2023-02-22T07:30:31;149772.38;;;9.17;100.00
12358;BME280;6243;51.244;6.774;2023-02-22T07:33:00;149667.03;;;8.75;100.00
12358;BME280;6243;51.244;6.774;2023-02-22T07:35:27;149796.47;;;9.26;100.00
12358;BME280;6243;51.244;6.774;2023-02-22T07:37:53;149725.41;;;8.98;100.00
12358;BME280;6243;51.244;6.774;2023-02-22T07:40:19;149667.03;;;8.75;100.00
12358;BME280;6243;51.244;6.774;2023-02-22T07:42:52;149763.47;;;9.13;100.00
12358;BME280;6243;51.244;6.774;2023-02-22T07:45:19;149788.88;;;9.23;100.00
12358;BME280;6243;51.244;6.774;2023-02-22T07:47:45;149825.66;;;9.38;100.00
12358;BME280;6243;51.244;6.774;2023-02-22T07:50:13;149839.66;;;9.44;100.00
12358;BME280;6243;51.244;6.774;2023-02-22T07:52:39;149868.88;;;9.55;100.00
12358;BME280;6243;51.244;6.774;2023-02-22T07:55:05;149816.81;;;9.35;100.00
12358;BME280;6243;51.244;6.774;2023-02-22T07:57:30;149891.72;;;9.64;100.00
12358;BME280;6243;51.244;6.774;2023-02-22T07:59:56;149865.03;;;9.54;100.00
12358;BME280;6243;51.244;6.774;2023-02-22T08:02:24;149884.09;;;9.61;100.00
12358;BME280;6243;51.244;6.774;2023-02-22T08:04:50;149889.16;;;9.63;100.00
12358;BME280;6243;51.244;6.774;2023-02-22T08:07:16;149942.50;;;9.84;100.00
12358;BME280;6243;51.244;6.774;2023-02-22T08:09:42;149870.16;;;9.56;100.00
12358;BME280;6243;51.244;6.774;2023-02-22T08:12:07;149956.50;;;9.90;100.00
12358;BME280;6243;51.244;6.774;2023-02-22T08:14:33;149895.50;;;9.66;100.00
12358;BME280;6243;51.244;6.774;2023-02-22T08:16:58;149983.16;;;10.00;100.00
12358;BME280;6243;51.244;6.774;2023-02-22T08:19:24;149974.28;;;9.97;100.00
12358;BME280;6243;51.244;6.774;2023-02-22T08:21:49;149992.03;;;10.04;100.00
12358;BME280;6243;51.244;6.774;2023-02-22T08:24:16;149992.03;;;10.04;100.00
12358;BME280;6243;51.244;6.774;2023-02-22T08:26:43;149999.69;;;10.07;100.00
12358;BME280;6243;51.244;6.774;2023-02-22T08:29:09;150056.91;;;10.30;100.00
12358;BME280;6243;51.244;6.774;2023-02-22T08:31:35;150054.38;;;10.29;100.00
12358;BME280;6243;51.244;6.774;2023-02-22T08:34:00;150078.50;;;10.38;100.00
12358;BME280;6243;51.244;6.774;2023-02-22T08:36:26;150105.22;;;10.49;100.00
12358;BME280;6243;51.244;6.774;2023-02-22T08:38:51;150164.91;;;10.73;100.00
12358;BME280;6243;51.244;6.774;2023-02-22T08:41:18;150185.28;;;10.81;100.00
12358;BME280;6243;51.244;6.774;2023-02-22T08:43:44;150215.81;;;10.93;100.00
12358;BME280;6243;51.244;6.774;2023-02-22T08:46:09;150167.47;;;10.74;100.00
12358;BME280;6243;51.244;6.774;2023-02-22T08:48:35;150131.88;;;10.59;100.00
12358;BME280;6243;51.244;6.774;2023-02-22T08:51:00;150190.34;;;10.83;100.00
12358;BME280;6243;51.244;6.774;2023-02-22T08:53:26;150250.13;;;11.06;100.00
12358;BME280;6243;51.244;6.774;2023-02-22T08:55:51;150106.50;;;10.49;100.00
12358;BME280;6243;51.244;6.774;2023-02-22T08:58:18;150205.59;;;10.89;100.00
12358;BME280;6243;51.244;6.774;2023-02-22T09:00:44;150219.59;;;10.94;100.00
12358;BME280;6243;51.244;6.774;2023-02-22T09:03:11;150157.31;;;10.69;100.00
12358;BME280;6243;51.244;6.774;2023-02-22T09:05:37;150236.13;;;11.01;100.00
12358;BME280;6243;51.244;6.774;2023-02-22T09:08:04;150288.25;;;11.21;100.00
12358;BME280;6243;51.244;6.774;2023-02-22T09:10:31;150251.38;;;11.07;100.00
12358;BME280;6243;51.244;6.774;2023-02-22T09:12:57;150318.78;;;11.33;100.00
12358;BME280;6243;51.244;6.774;2023-02-22T09:15:25;150194.16;;;10.84;100.00
12358;BME280;6243;51.244;6.774;2023-02-22T09:17:51;150239.91;;;11.02;100.00
12358;BME280;6243;51.244;6.774;2023-02-22T09:20:18;150302.25;;;11.27;100.00
12358;BME280;6243;51.244;6.774;2023-02-22T09:22:45;150308.59;;;11.29;100.00
12358;BME280;6243;51.244;6.774;2023-02-22T09:25:11;150362.00;;;11.51;100.00
12358;BME280;6243;51.244;6.774;2023-02-22T09:27:37;150336.59;;;11.40;100.00
12358;BME280;6243;51.244;6.774;2023-02-22T09:30:03;150373.47;;;11.55;100.00
12358;BME280;6243;51.244;6.774;2023-02-22T09:32:30;150401.44;;;11.66;100.00
12358;BME280;6243;51.244;6.774;2023-02-22T09:34:56;150418.03;;;11.73;100.00
12358;BME280;6243;51.244;6.774;2023-02-22T09:37:21;150428.22;;;11.77;100.00
12358;BME280;6243;51.244;6.774;2023-02-22T09:39:47;150355.66;;;11.48;100.00
12358;BME280;6243;51.244;6.774;2023-02-22T09:42:17;150384.91;;;11.60;100.00
12358;BME280;6243;51.244;6.774;2023-02-22T09:44:51;150451.13;;;11.86;100.00
12358;BME280;6243;51.244;6.774;2023-02-22T09:47:21;150503.31;;;12.06;100.00
12358;BME280;6243;51.244;6.774;2023-02-22T09:49:55;150477.84;;;11.96;100.00
12358;BME280;6243;51.244;6.774;2023-02-22T09:52:26;150491.84;;;12.02;100.00
12358;BME280;6243;51.244;6.774;2023-02-22T09:55:00;150565.66;;;12.31;100.00
12358;BME280;6243;51.244;6.774;2023-02-22T09:57:32;150541.47;;;12.22;100.00
12358;BME280;6243;51.244;6.774;2023-02-22T10:00:02;150607.69;;;12.48;100.00
12358;BME280;6243;51.244;6.774;2023-02-22T10:02:33;150526.22;;;12.16;100.00
12358;BME280;6243;51.244;6.774;2023-02-22T10:05:07;150648.41;;;12.64;100.00
12358;BME280;6243;51.244;6.774;2023-02-22T10:07:40;150608.91;;;12.48;100.00
12358;BME280;6243;51.244;6.774;2023-02-22T10:10:14;150673.84;;;12.74;100.00
12358;BME280;6243;51.244;6.774;2023-02-22T10:12:49;150815.28;;;13.30;100.00
12358;BME280;6243;51.244;6.774;2023-02-22T10:15:31;150817.81;;;13.31;100.00
12358;BME280;6243;51.244;6.774;2023-02-22T10:18:19;150829.28;;;13.35;100.00
12358;BME280;6243;51.244;6.774;2023-02-22T10:20:56;150923.56;;;13.73;100.00
12358;BME280;6243;51.244;6.774;2023-02-22T10:23:28;150929.94;;;13.75;100.00
12358;BME280;6243;51.244;6.774;2023-02-22T10:26:03;150979.63;;;13.95;100.00
12358;BME280;6243;51.244;6.774;2023-02-22T10:28:36;150938.84;;;13.79;100.00
12358;BME280;6243;51.244;6.774;2023-02-22T10:31:07;150971.97;;;13.92;100.00
12358;BME280;6243;51.244;6.774;2023-02-22T10:33:36;150978.34;;;13.94;100.00
12358;BME280;6243;51.244;6.774;2023-02-22T10:36:08;150918.47;;;13.71;100.00
12358;BME280;6243;51.244;6.774;2023-02-22T10:38:42;151093.16;;;14.40;100.00
12358;BME280;6243;51.244;6.774;2023-02-22T10:41:18;151153.06;;;14.63;100.00
12358;BME280;6243;51.244;6.774;2023-02-22T10:43:45;151196.44;;;14.80;100.00
12358;BME280;6243;51.244;6.774;2023-02-22T10:46:13;151012.75;;;14.08;100.00
12358;BME280;6243;51.244;6.774;2023-02-22T10:48:41;151128.81;;;14.54;100.00
12358;BME280;6243;51.244;6.774;2023-02-22T10:51:10;151158.16;;;14.65;100.00
12358;BME280;6243;51.244;6.774;2023-02-22T10:53:36;151089.31;;;14.38;100.00
12358;BME280;6243;51.244;6.774;2023-02-22T10:56:12;151204.06;;;14.83;100.00
12358;BME280;6243;51.244;6.774;2023-02-22T10:58:41;151172.19;;;14.71;100.00
12358;BME280;6243;51.244;6.774;2023-02-22T11:01:17;151317.63;;;15.28;100.00
12358;BME280;6243;51.244;6.774;2023-02-22T11:03:43;151251.25;;;15.02;100.00
12358;BME280;6243;51.244;6.774;2023-02-22T11:06:18;151405.69;;;15.63;100.00
12358;BME280;6243;51.244;6.774;2023-02-22T11:08:44;151450.38;;;15.81;99.89
12358;BME280;6243;51.244;6.774;2023-02-22T11:11:21;151405.69;;;15.63;98.88
12358;BME280;6243;51.244;6.774;2023-02-22T11:13:53;151511.63;;;16.05;96.28
12358;BME280;6243;51.244;6.774;2023-02-22T11:16:20;151528.22;;;16.11;92.77
12358;BME280;6243;51.244;6.774;2023-02-22T11:18:49;151366.13;;;15.47;93.24
12358;BME280;6243;51.244;6.774;2023-02-22T11:21:21;151399.34;;;15.60;93.97
12358;BME280;6243;51.244;6.774;2023-02-22T11:23:48;151447.81;;;15.80;90.42
12358;BME280;6243;51.244;6.774;2023-02-22T11:26:16;151570.38;;;16.28;90.38
12358;BME280;6243;51.244;6.774;2023-02-22T11:28:44;151565.28;;;16.26;88.02
12358;BME280;6243;51.244;6.774;2023-02-22T11:31:14;151477.16;;;15.91;88.21
12358;BME280;6243;51.244;6.774;2023-02-22T11:33:48;151465.69;;;15.87;88.63
12358;BME280;6243;51.244;6.774;2023-02-22T11:36:30;151500.16;;;16.00;85.61
12358;BME280;6243;51.244;6.774;2023-02-22T11:38:56;151432.50;;;15.74;86.25
12358;BME280;6243;51.244;6.774;2023-02-22T11:41:27;151507.81;;;16.03;87.79
12358;BME280;6243;51.244;6.774;2023-02-22T11:43:53;151548.69;;;16.19;85.94
12358;BME280;6243;51.244;6.774;2023-02-22T11:46:20;151555.06;;;16.22;85.00
12358;BME280;6243;51.244;6.774;2023-02-22T11:48:55;151625.25;;;16.50;84.25
12358;BME280;6243;51.244;6.774;2023-02-22T11:51:28;151571.66;;;16.28;85.49
12358;BME280;6243;51.244;6.774;2023-02-22T11:54:15;151553.78;;;16.21;84.43
12358;BME280;6243;51.244;6.774;2023-02-22T11:56:44;151478.47;;;15.92;84.97
12358;BME280;6243;51.244;6.774;2023-02-22T11:59:23;151667.47;;;16.66;84.63
12358;BME280;6243;51.244;6.774;2023-02-22T12:01:55;151562.69;;;16.25;82.86
12358;BME280;6243;51.244;6.774;2023-02-22T12:04:41;151689.16;;;16.75;81.44
12358;BME280;6243;51.244;6.774;2023-02-22T12:07:16;151777.34;;;17.10;79.03
12358;BME280;6243;51.244;6.774;2023-02-22T12:09:50;151668.75;;;16.67;79.48
12358;BME280;6243;51.244;6.774;2023-02-22T12:12:24;151687.94;;;16.74;80.13
12358;BME280;6243;51.244;6.774;2023-02-22T12:15:00;151608.66;;;16.43;80.49
12358;BME280;6243;51.244;6.774;2023-02-22T12:17:35;151523.13;;;16.09;82.51
12358;BME280;6243;51.244;6.774;2023-02-22T12:20:07;151466.97;;;15.87;83.72
12358;BME280;6243;51.244;6.774;2023-02-22T12:22:43;151464.41;;;15.86;85.89
12358;BME280;6243;51.244;6.774;2023-02-22T12:25:17;151556.31;;;16.22;85.25
12358;BME280;6243;51.244;6.774;2023-02-22T12:27:46;151509.13;;;16.04;84.63
12358;BME280;6243;51.244;6.774;2023-02-22T12:30:18;151521.84;;;16.09;86.24
12358;BME280;6243;51.244;6.774;2023-02-22T12:32:47;151438.91;;;15.76;87.46
12358;BME280;6243;51.244;6.774;2023-02-22T12:35:19;151551.22;;;16.20;86.74
12358;BME280;6243;51.244;6.774;2023-02-22T12:37:55;151535.91;;;16.14;85.57
12358;BME280;6243;51.244;6.774;2023-02-22T12:40:31;151469.50;;;15.88;85.37
12358;BME280;6243;51.244;6.774;2023-02-22T12:43:00;151472.06;;;15.89;86.87
12358;BME280;6243;51.244;6.774;2023-02-22T12:45:33;151518.03;;;16.07;88.02
12358;BME280;6243;51.244;6.774;2023-02-22T12:48:06;151530.81;;;16.12;85.84
12358;BME280;6243;51.244;6.774;2023-02-22T12:50:38;151593.34;;;16.37;85.74
12358;BME280;6243;51.244;6.774;2023-02-22T12:53:13;151617.63;;;16.47;85.00
12358;BME280;6243;51.244;6.774;2023-02-22T12:55:46;151584.44;;;16.33;84.44
12358;BME280;6243;51.244;6.774;2023-02-22T12:58:20;151601.03;;;16.40;83.34
12358;BME280;6243;51.244;6.774;2023-02-22T13:00:50;151602.28;;;16.41;84.16
12358;BME280;6243;51.244;6.774;2023-02-22T13:03:28;151662.38;;;16.64;83.31
12358;BME280;6243;51.244;6.774;2023-02-22T13:06:00;151724.94;;;16.89;80.91
12358;BME280;6243;51.244;6.774;2023-02-22T13:08:33;151719.84;;;16.87;78.93
12358;BME280;6243;51.244;6.774;2023-02-22T13:11:13;151678.97;;;16.71;80.98
12358;BME280;6243;51.244;6.774;2023-02-22T13:13:45;151714.75;;;16.85;78.63